Time;durP1;ratioP1;P1;durP2;ratioP2;P2;SDS_P1;SDS_P2;PMS_P1;PMS_P2;Temp;Humidity;BMP_temperature;BMP_pressure;BME280_temperature;BME280_humidity;BME280_pressure;Samples;Min_cycle;Max_cycle;Signal;HPM_P1;HPM_P2
2021/09/25 00:00:34;;;;;;;0.20;0.15;;;;;;;19.27;58.09;99606.03;5054049;28;20049;-67
2021/09/25 00:03:02;;;;;;;0.70;0.10;;;;;;;19.24;58.80;99609.19;5053388;28;20036;-67
2021/09/25 00:05:29;;;;;;;0.20;0.20;;;;;;;19.26;58.85;99617.16;5053661;28;20388;-67
2021/09/25 00:07:55;;;;;;;0.38;0.20;;;;;;;19.27;60.47;99624.28;5057095;28;20043;-67
2021/09/25 00:10:21;;;;;;;0.60;0.20;;;;;;;19.24;58.39;99620.91;5053175;28;20052;-67
2021/09/25 00:12:47;;;;;;;0.38;0.10;;;;;;;19.21;58.55;99621.34;5053649;28;20032;-67
2021/09/25 00:15:13;;;;;;;1.55;0.28;;;;;;;19.21;58.38;99621.34;5051802;28;20029;-67
2021/09/25 00:17:38;;;;;;;0.40;0.30;;;;;;;19.22;58.92;99616.72;5053569;28;20484;-67
2021/09/25 00:20:05;;;;;;;0.00;0.00;;;;;;;19.25;58.66;99616.31;5053120;28;20063;-67
2021/09/25 00:22:31;;;;;;;1.10;0.22;;;;;;;19.22;59.42;99619.47;5053560;28;20024;-67
2021/09/25 00:28:18;;;;;;;0.40;0.20;;;;;;;19.27;58.72;99616.09;5084285;28;20094;-67
2021/09/25 00:30:43;;;;;;;0.57;0.15;;;;;;;19.23;58.67;99621.97;5075969;28;20040;-67
2021/09/25 00:33:09;;;;;;;0.13;0.10;;;;;;;19.27;58.75;99619.66;5073069;28;20020;-67
2021/09/25 00:35:34;;;;;;;0.70;0.20;;;;;;;19.23;58.77;99618.41;5073170;28;20467;-67
2021/09/25 00:37:59;;;;;;;0.68;0.20;;;;;;;19.21;58.91;99626.78;5072946;28;20104;-67
2021/09/25 00:40:25;;;;;;;0.30;0.13;;;;;;;19.21;58.83;99631.41;5073247;28;20448;-67
2021/09/25 00:42:51;;;;;;;0.10;0.10;;;;;;;19.28;58.89;99632.25;5072995;28;20031;-67
2021/09/25 00:45:19;;;;;;;0.60;0.20;;;;;;;19.19;59.23;99628.88;5073303;28;20028;-67
2021/09/25 00:47:45;;;;;;;0.75;0.30;;;;;;;19.21;58.05;99625.94;5073206;28;20063;-67
2021/09/25 00:50:10;;;;;;;0.47;0.35;;;;;;;19.21;58.63;99631.41;5072791;28;20060;-67
2021/09/25 00:52:36;;;;;;;0.10;0.10;;;;;;;19.23;59.39;99632.03;5073250;28;20062;-67
2021/09/25 00:55:03;;;;;;;0.40;0.20;;;;;;;19.20;59.40;99640.63;5076809;28;20058;-67
2021/09/25 00:57:29;;;;;;;1.27;0.20;;;;;;;19.19;59.56;99636.22;5073518;28;20071;-67
2021/09/25 00:59:55;;;;;;;0.75;0.30;;;;;;;19.22;59.80;99644.81;5081683;28;20029;-67
2021/09/25 01:02:21;;;;;;;0.47;0.20;;;;;;;19.20;59.31;99635.16;5076990;28;20028;-67
2021/09/25 01:04:47;;;;;;;1.02;0.25;;;;;;;19.19;59.13;99638.94;5077470;28;20119;-67
2021/09/25 01:07:13;;;;;;;1.25;0.43;;;;;;;19.17;59.48;99641.88;5076853;28;20020;-67
2021/09/25 01:09:38;;;;;;;0.20;0.20;;;;;;;19.18;58.39;99642.72;5077250;28;20060;-67
2021/09/25 01:12:04;;;;;;;0.10;0.10;;;;;;;19.17;59.30;99647.31;5076590;28;20103;-67
2021/09/25 01:14:31;;;;;;;0.10;0.10;;;;;;;19.18;59.74;99649.00;5077143;28;20116;-67
2021/09/25 01:17:07;;;;;;;0.28;0.25;;;;;;;19.18;59.43;99643.56;5077073;28;20414;-66
2021/09/25 01:19:33;;;;;;;0.20;0.10;;;;;;;19.14;59.99;99646.88;5077626;28;20459;-67
2021/09/25 01:22:00;;;;;;;0.57;0.13;;;;;;;19.15;59.39;99648.56;5076774;28;20035;-67
2021/09/25 01:24:26;;;;;;;0.10;0.10;;;;;;;19.19;59.49;99638.94;5065469;28;20108;-67
2021/09/25 01:26:51;;;;;;;0.30;0.20;;;;;;;19.15;58.89;99645.84;5056925;28;20112;-67
2021/09/25 01:30:09;;;;;;;0.20;0.20;;;;;;;19.13;59.07;99640.59;5073768;28;20183;-68
2021/09/25 01:32:35;;;;;;;0.60;0.10;;;;;;;19.12;59.51;99648.97;4975398;28;20050;-67
2021/09/25 01:35:01;;;;;;;0.30;0.30;;;;;;;19.17;59.30;99651.94;4975258;28;20066;-67
2021/09/25 01:37:26;;;;;;;0.20;0.20;;;;;;;19.14;60.01;99649.59;4975647;28;20061;-67
2021/09/25 01:39:51;;;;;;;1.13;0.40;;;;;;;19.12;59.58;99651.69;4978008;28;20394;-67
2021/09/25 01:42:17;;;;;;;1.38;0.20;;;;;;;19.13;59.18;99661.53;4975416;28;20474;-67
2021/09/25 01:44:42;;;;;;;0.20;0.20;;;;;;;19.14;59.84;99652.31;4975317;28;20441;-67
2021/09/25 01:47:08;;;;;;;1.08;0.30;;;;;;;19.16;58.82;99655.72;4975240;28;20046;-67
2021/09/25 01:49:34;;;;;;;0.35;0.30;;;;;;;19.19;58.76;99666.19;4975480;28;20038;-67
2021/09/25 01:51:59;;;;;;;0.38;0.10;;;;;;;19.18;58.86;99664.50;4975214;28;20039;-67
2021/09/25 01:54:24;;;;;;;0.10;0.10;;;;;;;19.12;59.59;99670.75;4975279;28;20038;-68
2021/09/25 01:56:50;;;;;;;1.63;0.30;;;;;;;19.10;59.81;99672.84;4975263;28;20031;-69
2021/09/25 01:59:15;;;;;;;0.13;0.13;;;;;;;19.12;59.63;99676.19;4974829;28;20038;-69
2021/09/25 02:01:41;;;;;;;0.10;0.10;;;;;;;19.14;59.01;99679.56;4975249;28;20119;-69
2021/09/25 02:04:06;;;;;;;0.63;0.32;;;;;;;19.20;58.53;99686.94;4987214;28;20069;-69
2021/09/25 02:06:32;;;;;;;0.30;0.17;;;;;;;19.17;58.86;99690.06;4976772;28;20090;-69
2021/09/25 02:08:57;;;;;;;1.27;0.30;;;;;;;19.14;59.06;99691.28;5041578;28;20051;-69
2021/09/25 02:11:23;;;;;;;0.80;0.20;;;;;;;19.12;59.90;99687.94;5055945;28;20033;-69
2021/09/25 02:13:49;;;;;;;0.22;0.10;;;;;;;19.13;58.88;99694.22;5055740;28;20029;-70
2021/09/25 02:16:15;;;;;;;0.40;0.22;;;;;;;19.13;59.99;99691.50;5055702;28;20715;-67
2021/09/25 02:18:40;;;;;;;0.10;0.10;;;;;;;19.13;59.18;99686.06;5055434;28;20032;-67
2021/09/25 02:21:06;;;;;;;1.20;0.20;;;;;;;19.10;59.22;99694.66;5055451;28;20025;-67
2021/09/25 02:23:33;;;;;;;1.65;0.10;;;;;;;19.10;59.62;99694.66;5037686;28;20027;-67
2021/09/25 02:26:00;;;;;;;0.65;0.30;;;;;;;19.10;59.77;99700.94;5055526;28;20028;-67
2021/09/25 02:28:26;;;;;;;0.70;0.10;;;;;;;19.08;59.45;99696.72;5056445;28;20035;-67
2021/09/25 02:30:52;;;;;;;1.20;0.50;;;;;;;19.09;59.28;99703.84;5055641;28;20383;-67
2021/09/25 02:33:17;;;;;;;0.73;0.28;;;;;;;19.08;59.32;99696.72;5055383;28;20424;-67
2021/09/25 02:35:54;;;;;;;0.57;0.20;;;;;;;19.11;59.32;99705.34;5071102;28;20009;-67
2021/09/25 02:38:20;;;;;;;0.47;0.30;;;;;;;19.09;59.12;99703.84;5067064;28;20507;-69
2021/09/25 02:40:46;;;;;;;0.73;0.30;;;;;;;19.11;58.79;99709.94;5055445;28;20064;-69
2021/09/25 02:43:12;;;;;;;0.22;0.20;;;;;;;19.10;59.20;99716.44;5054936;28;20044;-67
2021/09/25 02:45:38;;;;;;;0.63;0.20;;;;;;;19.02;59.25;99713.91;5055471;28;20078;-67
2021/09/25 02:48:03;;;;;;;0.90;0.30;;;;;;;19.05;59.72;99708.03;5053653;28;20640;-67
2021/09/25 02:50:29;;;;;;;0.30;0.10;;;;;;;19.06;59.58;99720.63;5055139;28;20388;-69
2021/09/25 02:52:54;;;;;;;0.55;0.20;;;;;;;19.05;59.19;99724.38;5056721;28;20459;-67
2021/09/25 02:55:20;;;;;;;0.35;0.17;;;;;;;19.07;58.77;99723.13;5054997;28;20043;-66
2021/09/25 02:57:46;;;;;;;0.57;0.20;;;;;;;19.08;60.10;99718.53;5054598;28;20106;-67
2021/09/25 03:00:17;;;;;;;0.73;0.20;;;;;;;19.08;59.15;99726.69;5054954;28;20060;-67
2021/09/25 03:02:43;;;;;;;1.13;0.30;;;;;;;19.08;59.41;99734.88;5054955;28;20024;-67
2021/09/25 03:05:09;;;;;;;0.13;0.10;;;;;;;19.06;58.72;99726.06;5067624;28;20053;-68
2021/09/25 03:07:35;;;;;;;0.30;0.10;;;;;;;19.06;59.87;99726.06;5069001;28;20086;-67
2021/09/25 03:10:00;;;;;;;0.10;0.10;;;;;;;19.08;58.97;99729.41;5054554;28;20048;-67
2021/09/25 03:12:26;;;;;;;0.50;0.35;;;;;;;19.09;59.33;99736.53;5054706;28;20506;-68
2021/09/25 03:15:00;;;;;;;0.32;0.10;;;;;;;19.08;59.02;99735.72;5057759;28;20025;-67
2021/09/25 03:17:26;;;;;;;0.77;0.40;;;;;;;19.06;59.43;99740.53;5054544;28;20120;-69
2021/09/25 03:19:51;;;;;;;1.75;0.20;;;;;;;19.08;59.39;99745.75;5054015;28;20100;-69
2021/09/25 03:22:17;;;;;;;0.50;0.10;;;;;;;19.07;59.36;99752.25;5053804;28;20509;-69
2021/09/25 03:24:44;;;;;;;0.77;0.30;;;;;;;19.09;60.05;99747.44;5067497;28;20041;-69
2021/09/25 03:27:09;;;;;;;0.30;0.20;;;;;;;19.10;58.75;99760.00;5074454;28;20056;-69
2021/09/25 03:29:35;;;;;;;0.75;0.20;;;;;;;19.11;58.47;99767.16;5074111;28;20079;-69
2021/09/25 03:32:00;;;;;;;0.38;0.28;;;;;;;19.09;58.99;99764.63;5056320;28;20020;-70
2021/09/25 03:34:25;;;;;;;0.20;0.13;;;;;;;19.10;58.36;99763.59;5073919;28;20047;-67
2021/09/25 03:36:57;;;;;;;0.65;0.20;;;;;;;19.05;59.31;99766.09;5097130;28;20008;-67
2021/09/25 03:39:22;;;;;;;0.85;0.22;;;;;;;19.11;59.46;99772.59;5082495;28;20480;-69
2021/09/25 03:41:48;;;;;;;0.70;0.22;;;;;;;19.08;59.72;99767.56;5073902;28;20028;-69
2021/09/25 03:44:13;;;;;;;0.52;0.25;;;;;;;19.03;58.96;99770.06;5074014;28;20096;-70
2021/09/25 03:46:38;;;;;;;0.57;0.20;;;;;;;19.07;59.46;99779.50;5073730;28;20066;-70
2021/09/25 03:49:04;;;;;;;0.30;0.20;;;;;;;19.06;59.63;99786.00;5073989;28;20427;-70
2021/09/25 03:51:30;;;;;;;0.50;0.28;;;;;;;19.08;58.74;99794.78;5073297;28;20028;-67
2021/09/25 03:53:55;;;;;;;0.30;0.20;;;;;;;19.09;60.25;99793.75;5073535;28;20100;-68
2021/09/25 03:56:21;;;;;;;1.02;0.10;;;;;;;19.10;59.03;99801.72;5073586;28;20082;-67
2021/09/25 03:58:46;;;;;;;0.93;0.22;;;;;;;19.02;59.69;99806.50;5073708;28;20024;-67
2021/09/25 04:01:12;;;;;;;0.45;0.38;;;;;;;19.01;59.01;99802.09;5074725;28;20017;-66
2021/09/25 04:03:38;;;;;;;0.17;0.10;;;;;;;19.11;59.33;99805.28;5074395;28;20037;-67
2021/09/25 04:06:03;;;;;;;0.60;0.10;;;;;;;19.23;59.29;99811.84;5073418;28;20029;-68
2021/09/25 04:08:29;;;;;;;0.63;0.40;;;;;;;19.29;59.11;99813.75;5055528;28;20056;-68
2021/09/25 04:10:54;;;;;;;0.30;0.20;;;;;;;19.37;59.17;99810.88;5073321;28;20463;-68
2021/09/25 04:13:20;;;;;;;0.85;0.15;;;;;;;19.47;59.08;99821.38;5073685;28;20356;-67
2021/09/25 04:15:45;;;;;;;0.73;0.10;;;;;;;19.46;59.39;99830.63;5073297;28;20025;-67
2021/09/25 04:18:11;;;;;;;0.93;0.38;;;;;;;19.55;60.14;99834.91;5073433;28;20039;-69
2021/09/25 04:20:37;;;;;;;0.20;0.20;;;;;;;19.56;58.93;99842.03;5073156;28;20024;-69
2021/09/25 04:23:03;;;;;;;0.75;0.35;;;;;;;19.60;59.51;99847.91;5055543;28;20028;-70
2021/09/25 04:25:31;;;;;;;0.68;0.28;;;;;;;19.68;59.52;99854.03;5053804;28;20480;-67
2021/09/25 04:28:05;;;;;;;0.30;0.22;;;;;;;19.69;59.76;99853.00;5035631;28;20020;-67
2021/09/25 04:30:34;;;;;;;0.10;0.10;;;;;;;19.72;61.40;99860.75;5035454;28;20436;-70
2021/09/25 04:33:00;;;;;;;0.43;0.30;;;;;;;19.77;60.22;99865.59;5053178;28;20036;-69
2021/09/25 04:35:26;;;;;;;0.22;0.22;;;;;;;19.75;60.71;99868.53;5058929;28;20041;-69
2021/09/25 04:38:05;;;;;;;0.45;0.30;;;;;;;19.77;60.30;99876.50;5078620;28;20035;-69
2021/09/25 04:40:31;;;;;;;0.63;0.35;;;;;;;19.78;60.52;99880.91;5068512;28;20033;-70
2021/09/25 04:42:58;;;;;;;0.75;0.20;;;;;;;19.75;60.85;99878.59;5053134;28;20139;-69
2021/09/25 04:45:24;;;;;;;0.55;0.20;;;;;;;19.82;60.09;99884.94;5054702;28;20040;-69
2021/09/25 04:47:50;;;;;;;2.15;0.20;;;;;;;19.86;60.01;99886.19;5053235;28;20460;-70
2021/09/25 04:50:17;;;;;;;1.65;0.30;;;;;;;19.87;60.49;99884.31;5052697;28;20029;-68
2021/09/25 04:52:42;;;;;;;2.47;0.30;;;;;;;19.89;60.39;99880.34;5052968;28;20527;-67
2021/09/25 04:55:08;;;;;;;0.30;0.20;;;;;;;19.87;61.41;99878.84;5052930;28;20128;-67
2021/09/25 04:57:34;;;;;;;0.77;0.22;;;;;;;19.89;61.39;99879.50;5052930;28;20025;-68
2021/09/25 05:00:00;;;;;;;0.88;0.40;;;;;;;19.87;61.30;99876.13;5052814;28;20464;-68
2021/09/25 05:02:25;;;;;;;0.70;0.25;;;;;;;19.87;61.16;99879.69;5052555;28;20040;-67
2021/09/25 05:04:51;;;;;;;0.20;0.10;;;;;;;19.89;60.28;99885.78;5055275;28;20021;-67
2021/09/25 05:07:16;;;;;;;0.82;0.10;;;;;;;19.85;60.74;99889.97;5053379;28;20444;-67
2021/09/25 05:09:41;;;;;;;0.10;0.10;;;;;;;19.92;60.13;99890.81;5078318;28;20037;-68
2021/09/25 05:12:07;;;;;;;0.40;0.35;;;;;;;19.92;61.78;99888.09;5065571;28;20108;-67
2021/09/25 05:14:35;;;;;;;0.70;0.50;;;;;;;19.94;61.19;99896.91;5034940;28;20021;-67
2021/09/25 05:17:02;;;;;;;0.80;0.20;;;;;;;19.94;60.58;99896.91;5052662;28;20025;-67
2021/09/25 05:19:27;;;;;;;0.90;0.25;;;;;;;19.90;62.62;99898.38;5052262;28;20104;-68
2021/09/25 05:21:52;;;;;;;0.32;0.30;;;;;;;19.94;61.39;99899.66;5052831;28;20017;-67
2021/09/25 05:24:19;;;;;;;0.55;0.15;;;;;;;19.99;62.08;99902.63;5052180;28;20055;-67
2021/09/25 05:26:45;;;;;;;0.68;0.32;;;;;;;20.01;61.05;99911.44;5054854;28;20029;-67
2021/09/25 05:29:11;;;;;;;0.43;0.20;;;;;;;20.03;61.16;99914.81;5052330;28;20017;-67
2021/09/25 05:31:36;;;;;;;0.50;0.15;;;;;;;19.97;60.94;99914.75;5035272;28;20108;-67
2021/09/25 05:34:03;;;;;;;0.80;0.30;;;;;;;20.03;60.81;99920.25;5052010;28;20021;-68
2021/09/25 05:36:28;;;;;;;0.10;0.10;;;;;;;20.05;61.03;99918.16;5052741;28;20025;-67
2021/09/25 05:38:54;;;;;;;0.73;0.17;;;;;;;20.05;60.91;99918.16;5052556;28;20032;-67
2021/09/25 05:41:35;;;;;;;0.75;0.38;;;;;;;20.01;62.11;99922.34;5071796;28;20015;-67
2021/09/25 05:44:01;;;;;;;0.17;0.10;;;;;;;20.01;61.43;99925.09;5069697;28;20083;-68
2021/09/25 05:46:26;;;;;;;0.30;0.20;;;;;;;20.11;60.89;99930.13;5056058;28;20033;-68
2021/09/25 05:48:52;;;;;;;0.10;0.10;;;;;;;20.12;60.67;99935.38;5059329;28;20025;-67
2021/09/25 05:51:19;;;;;;;0.60;0.10;;;;;;;20.07;61.62;99946.09;5055860;28;20021;-67
2021/09/25 05:53:45;;;;;;;0.65;0.20;;;;;;;20.03;61.67;99947.53;5056242;28;20037;-67
2021/09/25 05:56:10;;;;;;;0.17;0.10;;;;;;;20.09;61.58;99949.44;5056066;28;20035;-67
2021/09/25 05:58:36;;;;;;;0.90;0.20;;;;;;;20.14;60.34;99946.94;5055698;28;20139;-69
2021/09/25 06:01:01;;;;;;;0.47;0.20;;;;;;;20.17;60.86;99953.06;5055966;28;20462;-69
2021/09/25 06:03:26;;;;;;;0.38;0.20;;;;;;;20.19;60.91;99950.97;5055950;28;20020;-70
2021/09/25 06:05:52;;;;;;;0.32;0.20;;;;;;;20.19;60.54;99961.88;5056100;28;20425;-69
2021/09/25 06:08:17;;;;;;;0.30;0.17;;;;;;;20.11;61.50;99966.44;5055624;28;20032;-68
2021/09/25 06:10:42;;;;;;;0.77;0.38;;;;;;;20.13;61.19;99971.69;5056463;28;20032;-67
2021/09/25 06:13:10;;;;;;;0.65;0.30;;;;;;;20.03;61.74;99974.81;5055802;28;20017;-67
2021/09/25 06:15:36;;;;;;;0.10;0.10;;;;;;;20.03;61.78;99969.38;5070661;28;20033;-67
2021/09/25 06:18:02;;;;;;;0.20;0.10;;;;;;;20.13;61.49;99988.06;5055862;28;20032;-69
2021/09/25 06:20:28;;;;;;;1.95;0.47;;;;;;;20.21;60.35;99989.78;5055400;28;20070;-69
2021/09/25 06:22:53;;;;;;;0.25;0.10;;;;;;;20.20;61.10;100001.75;5055731;28;20099;-69
2021/09/25 06:25:19;;;;;;;2.20;0.22;;;;;;;20.12;60.58;100005.50;5055281;28;20372;-67
2021/09/25 06:27:44;;;;;;;0.10;0.08;;;;;;;20.08;61.67;100021.44;5055520;28;20037;-68
2021/09/25 06:30:10;;;;;;;0.52;0.40;;;;;;;20.08;62.41;100015.13;5056883;28;20063;-67
2021/09/25 06:32:35;;;;;;;0.77;0.13;;;;;;;20.13;62.29;100029.84;5055334;28;20483;-67
2021/09/25 06:35:02;;;;;;;0.25;0.20;;;;;;;20.04;62.76;100036.53;5055405;28;20021;-67
2021/09/25 06:37:27;;;;;;;1.45;0.32;;;;;;;20.12;61.08;100030.88;5055126;28;20021;-67
2021/09/25 06:39:52;;;;;;;0.30;0.10;;;;;;;20.12;62.05;100043.69;5055358;28;20039;-68
2021/09/25 06:42:18;;;;;;;0.55;0.20;;;;;;;20.12;62.83;100021.84;5054932;28;20123;-69
2021/09/25 06:44:43;;;;;;;0.60;0.20;;;;;;;20.14;62.10;100036.13;5055467;28;20036;-68
2021/09/25 06:47:08;;;;;;;0.65;0.20;;;;;;;20.16;60.95;100025.88;5055120;28;20444;-66
2021/09/25 06:49:34;;;;;;;0.50;0.10;;;;;;;20.22;60.64;100026.97;5060416;28;20519;-67
2021/09/25 06:51:59;;;;;;;2.28;0.20;;;;;;;20.18;60.87;100031.16;5073084;28;20504;-68
2021/09/25 06:54:25;;;;;;;0.75;0.47;;;;;;;20.14;62.30;100031.53;5053920;28;20028;-67
2021/09/25 06:56:50;;;;;;;1.40;0.43;;;;;;;20.12;62.50;100025.44;5055143;28;20048;-67
2021/09/25 06:59:16;;;;;;;0.20;0.20;;;;;;;20.18;61.79;100020.22;5054805;28;20104;-68
2021/09/25 07:01:41;;;;;;;0.65;0.10;;;;;;;20.20;61.50;100018.13;5054633;28;20090;-67
2021/09/25 07:04:07;;;;;;;1.23;0.00;;;;;;;20.27;60.57;100040.81;5054827;28;20028;-68
2021/09/25 07:06:34;;;;;;;0.80;0.20;;;;;;;20.19;62.03;100027.38;5054986;28;20024;-68
2021/09/25 07:08:59;;;;;;;0.20;0.10;;;;;;;20.12;61.88;100033.63;5054350;28;20045;-68
2021/09/25 07:11:24;;;;;;;0.50;0.35;;;;;;;20.15;61.61;100043.28;5059192;28;20094;-67
2021/09/25 07:13:50;;;;;;;0.73;0.20;;;;;;;20.22;60.72;100046.06;5054563;28;20044;-68
2021/09/25 07:16:15;;;;;;;0.95;0.28;;;;;;;20.21;61.17;100052.56;5054139;28;20067;-68
2021/09/25 07:18:40;;;;;;;0.47;0.15;;;;;;;20.27;61.05;100058.03;5054700;28;20033;-68
2021/09/25 07:21:06;;;;;;;0.85;0.20;;;;;;;20.17;62.77;100064.94;5054071;28;20021;-68
2021/09/25 07:23:33;;;;;;;0.60;0.10;;;;;;;20.22;61.75;100067.91;5056689;28;20025;-67
2021/09/25 07:25:58;;;;;;;0.28;0.20;;;;;;;20.22;62.42;100067.91;5074040;28;20020;-67
2021/09/25 07:28:24;;;;;;;0.73;0.30;;;;;;;20.24;62.25;100069.38;5074743;28;20107;-67
2021/09/25 07:30:49;;;;;;;0.75;0.40;;;;;;;20.24;61.44;100087.63;5076373;28;20509;-67
2021/09/25 07:33:16;;;;;;;0.35;0.10;;;;;;;20.28;61.85;100088.91;5076035;28;20059;-67
2021/09/25 07:35:42;;;;;;;0.90;0.20;;;;;;;20.19;61.51;100081.94;5074266;28;20149;-68
2021/09/25 07:38:08;;;;;;;0.50;0.13;;;;;;;20.20;61.62;100094.53;5073636;28;20023;-68
2021/09/25 07:40:34;;;;;;;1.48;0.20;;;;;;;20.27;62.04;100101.72;5074299;28;20374;-67
2021/09/25 07:43:31;;;;;;;1.20;0.20;;;;;;;20.23;61.78;100115.97;5080527;28;20017;-67
2021/09/25 07:45:57;;;;;;;0.15;0.10;;;;;;;20.28;61.56;100113.47;5094595;28;20120;-68
2021/09/25 07:48:24;;;;;;;0.38;0.10;;;;;;;20.23;61.61;100121.44;5073714;28;20025;-67
2021/09/25 07:50:50;;;;;;;0.52;0.10;;;;;;;20.16;63.17;100126.03;5077443;28;20032;-68
2021/09/25 07:53:16;;;;;;;1.75;0.32;;;;;;;20.16;63.65;100134.19;5073476;28;20035;-67
2021/09/25 07:55:41;;;;;;;0.75;0.35;;;;;;;20.25;62.94;100135.72;5073752;28;20025;-67
2021/09/25 07:58:08;;;;;;;0.40;0.22;;;;;;;20.28;61.89;100146.22;5073703;28;20119;-67
2021/09/25 08:00:34;;;;;;;0.68;0.17;;;;;;;20.18;64.00;100143.03;5073847;28;20082;-67
2021/09/25 08:03:00;;;;;;;1.15;0.10;;;;;;;20.18;62.01;100156.69;5073424;28;20032;-68
2021/09/25 08:05:25;;;;;;;1.38;0.17;;;;;;;20.19;61.68;100158.34;5073443;28;20490;-68
2021/09/25 08:07:50;;;;;;;0.88;0.40;;;;;;;20.13;62.70;100166.28;5072959;28;20020;-67
2021/09/25 08:10:16;;;;;;;0.52;0.40;;;;;;;20.24;62.51;100173.09;5073734;28;20131;-66
2021/09/25 08:12:42;;;;;;;0.30;0.10;;;;;;;20.27;61.89;100178.13;5075134;28;20020;-68
2021/09/25 08:15:09;;;;;;;0.50;0.22;;;;;;;20.25;62.03;100182.13;5073485;28;20079;-68
2021/09/25 08:17:35;;;;;;;0.38;0.20;;;;;;;20.17;62.18;100199.50;5055401;28;20060;-67
2021/09/25 08:20:01;;;;;;;0.63;0.20;;;;;;;20.17;62.25;100190.47;5073398;28;20074;-68
2021/09/25 08:22:26;;;;;;;0.30;0.05;;;;;;;20.19;62.89;100191.94;5073421;28;20028;-68
2021/09/25 08:24:52;;;;;;;0.25;0.25;;;;;;;20.16;62.74;100194.25;5058700;28;20020;-68
2021/09/25 08:27:17;;;;;;;0.55;0.22;;;;;;;20.27;62.72;100205.44;5053373;28;20032;-68
2021/09/25 08:29:42;;;;;;;0.77;0.17;;;;;;;20.28;61.55;100206.28;5053546;28;20143;-68
2021/09/25 08:32:08;;;;;;;0.77;0.20;;;;;;;20.28;62.17;100211.72;5054761;28;20052;-67
2021/09/25 08:34:33;;;;;;;0.43;0.10;;;;;;;20.25;61.90;100201.22;5056159;28;20460;-67
2021/09/25 08:36:59;;;;;;;0.55;0.10;;;;;;;20.22;63.00;100209.81;5052942;28;20021;-67
2021/09/25 08:39:25;;;;;;;0.77;0.20;;;;;;;20.21;62.37;100208.13;5053117;28;20384;-68
2021/09/25 08:41:52;;;;;;;0.47;0.20;;;;;;;20.19;62.94;100213.78;5060628;28;20016;-66
2021/09/25 08:44:18;;;;;;;1.77;0.30;;;;;;;20.24;62.24;100219.47;5069386;28;20515;-70
2021/09/25 08:46:43;;;;;;;0.40;0.10;;;;;;;20.13;63.30;100231.78;5053189;28;20108;-70
2021/09/25 08:49:09;;;;;;;0.28;0.20;;;;;;;20.16;63.36;100237.91;5052769;28;20116;-70
2021/09/25 08:51:35;;;;;;;0.47;0.20;;;;;;;20.20;62.87;100239.19;5053183;28;20276;-69
2021/09/25 08:54:02;;;;;;;1.95;0.20;;;;;;;20.22;62.44;100245.28;5055443;28;20029;-69
2021/09/25 08:56:29;;;;;;;0.28;0.10;;;;;;;20.16;64.62;100236.03;5053099;28;20025;-70
2021/09/25 08:58:55;;;;;;;0.88;0.20;;;;;;;20.17;63.61;100247.78;5053012;28;20407;-68
2021/09/25 09:01:23;;;;;;;0.65;0.20;;;;;;;20.17;63.53;100245.06;5052697;28;20103;-68
2021/09/25 09:03:51;;;;;;;0.20;0.20;;;;;;;20.18;62.76;100249.47;5035265;28;20017;-68
2021/09/25 09:06:28;;;;;;;1.00;0.25;;;;;;;20.22;62.62;100245.28;5052516;28;20024;-68
2021/09/25 09:08:56;;;;;;;0.88;0.10;;;;;;;20.16;64.17;100262.47;5052792;28;20041;-70
2021/09/25 09:11:23;;;;;;;0.47;0.10;;;;;;;20.22;63.06;100264.41;5077977;28;20010;-70
2021/09/25 09:13:51;;;;;;;0.70;0.32;;;;;;;20.25;63.95;100264.00;5039443;28;20456;-68
2021/09/25 09:16:18;;;;;;;1.10;0.13;;;;;;;20.19;63.34;100262.91;5055096;28;20029;-67
2021/09/25 09:18:46;;;;;;;0.40;0.10;;;;;;;20.18;63.18;100271.28;5036130;28;20017;-68
2021/09/25 09:21:26;;;;;;;0.93;0.22;;;;;;;20.23;62.43;100279.72;5056726;28;20060;-68
2021/09/25 09:23:55;;;;;;;0.50;0.10;;;;;;;20.22;63.42;100283.50;5038622;28;20017;-70
2021/09/25 09:26:23;;;;;;;0.73;0.20;;;;;;;20.16;63.17;100289.75;5056654;28;20021;-70
2021/09/25 09:28:51;;;;;;;0.30;0.05;;;;;;;20.20;63.39;100293.78;5038715;28;20032;-70
2021/09/25 09:31:17;;;;;;;0.57;0.20;;;;;;;20.28;62.63;100307.25;5038745;28;20096;-69
2021/09/25 09:33:44;;;;;;;0.70;0.20;;;;;;;20.32;62.64;100308.56;5056560;28;20025;-70
2021/09/25 09:36:11;;;;;;;0.50;0.20;;;;;;;20.35;62.80;100316.38;5056413;28;20021;-70
2021/09/25 09:38:49;;;;;;;0.13;0.00;;;;;;;20.36;61.34;100329.81;5060822;28;20024;-70
2021/09/25 09:44:38;;;;;;;0.10;0.10;;;;;;;20.30;62.42;100335.19;5058362;28;20597;-69
2021/09/25 09:47:07;;;;;;;0.80;0.40;;;;;;;20.22;63.18;100332.63;5056269;28;20021;-70
2021/09/25 09:49:41;;;;;;;0.10;0.10;;;;;;;20.26;62.48;100334.75;5056037;28;20020;-70
2021/09/25 09:52:14;;;;;;;1.48;0.20;;;;;;;20.23;62.59;100334.31;5056271;28;20050;-70
2021/09/25 09:54:42;;;;;;;1.00;0.55;;;;;;;20.29;62.41;100349.91;5055900;28;20025;-68
2021/09/25 09:57:10;;;;;;;0.08;0.00;;;;;;;20.24;62.30;100344.19;5038253;28;20033;-68
2021/09/25 09:59:37;;;;;;;0.10;0.10;;;;;;;20.25;62.72;100348.59;5056100;28;20024;-68
2021/09/25 10:02:03;;;;;;;0.30;0.15;;;;;;;20.34;61.63;100358.38;5056191;28;20025;-67
2021/09/25 10:04:29;;;;;;;0.32;0.10;;;;;;;20.22;61.37;100365.38;5056008;28;20017;-68
2021/09/25 10:06:54;;;;;;;0.38;0.15;;;;;;;20.19;60.80;100371.22;5055636;28;20449;-68
2021/09/25 10:09:26;;;;;;;0.30;0.05;;;;;;;20.11;60.22;100374.91;5055798;28;20073;-68
2021/09/25 10:11:54;;;;;;;0.32;0.30;;;;;;;20.07;59.94;100379.94;5055664;28;20036;-67
2021/09/25 10:14:42;;;;;;;0.55;0.10;;;;;;;20.04;60.89;100379.47;5064554;28;20032;-68
2021/09/25 10:17:10;;;;;;;0.57;0.20;;;;;;;20.06;60.70;100385.56;5055208;28;20102;-68
2021/09/25 10:19:37;;;;;;;0.22;0.00;;;;;;;19.98;60.14;100389.25;5055542;28;20464;-68
2021/09/25 10:22:13;;;;;;;1.35;0.40;;;;;;;19.97;60.26;100395.75;5037774;28;20029;-68
2021/09/25 10:24:53;;;;;;;0.50;0.17;;;;;;;20.11;60.35;100394.88;5057151;28;20471;-69
2021/09/25 10:27:19;;;;;;;0.65;0.22;;;;;;;20.08;60.97;100400.72;5055569;28;20116;-70
2021/09/25 10:29:46;;;;;;;0.80;0.55;;;;;;;20.13;61.07;100409.16;5054991;28;20108;-70
2021/09/25 10:32:29;;;;;;;1.85;0.38;;;;;;;20.04;60.95;100402.16;5055495;28;20025;-70
2021/09/25 10:35:04;;;;;;;0.20;0.20;;;;;;;20.09;59.79;100415.19;5054980;28;20021;-68
2021/09/25 10:37:57;;;;;;;0.65;0.20;;;;;;;20.06;60.90;100419.16;5055449;28;20029;-68
2021/09/25 10:40:28;;;;;;;0.63;0.10;;;;;;;20.12;60.18;100425.72;5056900;28;20044;-70
2021/09/25 10:43:19;;;;;;;0.57;0.40;;;;;;;20.13;60.15;100420.06;5080496;28;20025;-70
2021/09/25 10:45:48;;;;;;;0.20;0.00;;;;;;;20.08;60.59;100430.72;5057257;28;20033;-70
2021/09/25 10:48:22;;;;;;;0.43;0.20;;;;;;;20.06;60.42;100434.69;5055104;28;20100;-68
2021/09/25 10:51:01;;;;;;;0.30;0.17;;;;;;;20.09;60.78;100446.06;5054960;28;20029;-70
2021/09/25 10:53:36;;;;;;;0.30;0.20;;;;;;;20.00;61.17;100449.97;5055100;28;20041;-70
2021/09/25 10:56:13;;;;;;;1.02;0.10;;;;;;;20.03;59.95;100444.13;5054720;28;20105;-70
2021/09/25 10:58:40;;;;;;;0.40;0.20;;;;;;;20.01;61.11;100446.19;5054403;28;20024;-68
2021/09/25 11:01:12;;;;;;;0.98;0.10;;;;;;;20.11;60.13;100457.63;5054754;28;20029;-68
2021/09/25 11:03:43;;;;;;;0.60;0.10;;;;;;;20.10;60.29;100453.22;5055008;28;20119;-70
2021/09/25 11:06:31;;;;;;;0.85;0.15;;;;;;;20.11;61.27;100454.91;5056432;28;20091;-69
2021/09/25 11:09:00;;;;;;;0.47;0.20;;;;;;;20.02;61.53;100458.78;5054683;28;20123;-70
2021/09/25 11:11:36;;;;;;;0.30;0.10;;;;;;;20.09;60.32;100464.31;5054552;28;20029;-70
2021/09/25 11:14:01;;;;;;;0.20;0.10;;;;;;;20.09;59.71;100459.72;5054548;28;20080;-70
2021/09/25 11:17:24;;;;;;;0.17;0.10;;;;;;;20.11;60.17;100465.81;5054306;28;20535;-69
2021/09/25 11:20:07;;;;;;;0.30;0.00;;;;;;;20.22;59.81;100474.56;5054603;28;20107;-70
2021/09/25 11:22:44;;;;;;;0.60;0.20;;;;;;;20.10;60.65;100472.31;5054227;28;20045;-68
2021/09/25 11:25:12;;;;;;;0.35;0.17;;;;;;;20.18;60.37;100473.25;5054333;28;20020;-70
2021/09/25 11:27:43;;;;;;;0.20;0.13;;;;;;;20.00;60.72;100477.25;5054180;28;20104;-70
2021/09/25 11:30:24;;;;;;;1.08;0.20;;;;;;;19.99;60.58;100482.91;5053968;28;20051;-68
2021/09/25 11:32:53;;;;;;;0.10;0.00;;;;;;;20.09;60.11;100495.19;5072341;28;20039;-69
2021/09/25 11:35:37;;;;;;;0.40;0.13;;;;;;;20.00;61.08;100496.34;5054183;28;20029;-70
2021/09/25 11:38:03;;;;;;;0.43;0.22;;;;;;;20.13;60.43;100509.28;5053981;28;20059;-70